Time;durP1;ratioP1;P1;durP2;ratioP2;P2;SDS_P1;SDS_P2;PMS_P1;PMS_P2;Temp;Humidity;BMP_temperature;BMP_pressure;BME280_temperature;BME280_humidity;BME280_pressure;Samples;Min_cycle;Max_cycle;Signal;HPM_P1;HPM_P2
2023/03/29 00:01:17;;;;;;;7.20;4.75;;;;;;;2.85;91.91;98848.18;1770091;81;21204;-88
2023/03/29 00:04:19;;;;;;;4.70;4.03;;;;;;;2.81;92.34;98857.10;1770707;81;21750;-88
2023/03/29 00:07:26;;;;;;;5.72;4.83;;;;;;;2.87;92.52;98855.13;1770313;79;21650;-78
2023/03/29 00:10:31;;;;;;;8.38;6.70;;;;;;;2.91;92.29;98849.71;1770493;81;21181;-78
2023/03/29 00:13:38;;;;;;;7.80;5.70;;;;;;;2.97;92.09;98854.48;1770931;81;21189;-87
2023/03/29 00:16:45;;;;;;;5.10;4.60;;;;;;;2.90;92.38;98858.83;1768694;81;21646;-87
2023/03/29 00:19:52;;;;;;;6.45;5.40;;;;;;;3.02;91.88;98864.80;1770099;79;21189;-87
2023/03/29 00:22:57;;;;;;;6.08;5.08;;;;;;;3.06;91.06;98873.77;1770309;80;21169;-78
2023/03/29 00:26:04;;;;;;;10.23;5.00;;;;;;;3.09;91.27;98871.22;1771652;81;21202;-78
2023/03/29 00:29:05;;;;;;;6.10;5.17;;;;;;;3.02;91.52;98871.55;1771601;81;21181;-78
2023/03/29 00:32:10;;;;;;;5.12;4.25;;;;;;;2.99;91.53;98878.63;1771662;81;21170;-79
2023/03/29 00:35:17;;;;;;;5.70;4.30;;;;;;;3.00;91.02;98883.01;1771661;81;21197;-79
2023/03/29 00:38:22;;;;;;;7.40;4.92;;;;;;;3.06;90.45;98883.73;1771707;81;21193;-87
2023/03/29 00:41:28;;;;;;;6.37;4.85;;;;;;;2.98;90.49;98893.14;1771763;81;21672;-78
2023/03/29 00:45:13;;;;;;;9.13;5.65;;;;;;;2.98;90.11;98892.64;1743477;81;21193;-88
2023/03/29 00:48:22;;;;;;;6.15;5.25;;;;;;;2.84;90.44;98885.14;1750829;81;21159;-87
2023/03/29 00:51:28;;;;;;;5.23;4.47;;;;;;;2.93;90.09;98892.28;1771954;81;21156;-88
2023/03/29 00:54:36;;;;;;;6.90;4.85;;;;;;;2.91;90.40;98901.54;1770190;79;21181;-88
2023/03/29 00:57:36;;;;;;;5.45;4.33;;;;;;;2.93;90.58;98917.09;1771701;81;21158;-87
2023/03/29 01:00:50;;;;;;;6.47;4.67;;;;;;;2.94;91.01;98920.13;1771676;81;21777;-87
2023/03/29 01:04:01;;;;;;;6.92;4.15;;;;;;;2.99;91.17;98929.95;1771739;81;21149;-88
2023/03/29 01:07:16;;;;;;;4.60;3.80;;;;;;;3.03;91.17;98933.52;1771611;81;21161;-78
2023/03/29 01:10:27;;;;;;;6.15;3.98;;;;;;;2.71;92.34;98934.18;1771623;81;21193;-87
2023/03/29 01:13:44;;;;;;;6.55;3.60;;;;;;;2.56;93.73;98942.53;1771599;81;21193;-88
2023/03/29 01:16:49;;;;;;;6.03;4.03;;;;;;;2.41;94.25;98943.61;1764864;80;21173;-78
2023/03/29 01:19:59;;;;;;;4.40;3.85;;;;;;;2.44;94.75;98951.88;1763357;81;21198;-79
2023/03/29 01:23:34;;;;;;;4.80;3.92;;;;;;;2.53;94.95;98952.28;1763420;81;21134;-79
2023/03/29 01:27:21;;;;;;;3.67;2.62;;;;;;;2.44;95.19;98958.12;1763275;81;21161;-85
2023/03/29 01:30:35;;;;;;;3.67;3.17;;;;;;;2.45;95.89;98961.19;1763289;81;21170;-78
2023/03/29 01:33:48;;;;;;;7.92;3.55;;;;;;;2.45;96.40;98954.95;1763281;81;21229;-78
2023/03/29 01:37:12;;;;;;;3.70;2.42;;;;;;;2.48;96.36;98962.70;1763263;81;21162;-79
2023/03/29 01:40:17;;;;;;;4.33;2.33;;;;;;;2.42;96.71;98971.44;1763309;81;21227;-78
2023/03/29 01:43:57;;;;;;;3.02;2.08;;;;;;;2.31;97.44;98969.84;1763276;81;21161;-85
2023/03/29 01:47:08;;;;;;;2.40;2.20;;;;;;;2.35;97.24;98965.80;1763289;81;21157;-87
2023/03/29 01:50:24;;;;;;;3.65;2.12;;;;;;;2.21;96.98;98969.94;1763427;81;21221;-86
2023/03/29 01:53:40;;;;;;;2.22;2.02;;;;;;;2.13;97.18;98982.50;1763162;81;21186;-79
2023/03/29 01:56:48;;;;;;;2.83;2.20;;;;;;;2.18;96.95;98982.38;1761771;81;21178;-79
2023/03/29 01:59:53;;;;;;;2.25;1.80;;;;;;;2.00;96.90;98993.67;1763147;81;21778;-87
2023/03/29 02:02:59;;;;;;;2.10;1.70;;;;;;;2.00;97.17;98988.28;1763259;81;21163;-80
2023/03/29 02:05:50;;;;;;;2.22;1.80;;;;;;;1.95;97.28;98992.78;1763315;81;21202;-78
2023/03/29 02:08:56;;;;;;;3.15;2.30;;;;;;;1.90;97.56;98996.95;1763338;81;21153;-86
2023/03/29 02:12:04;;;;;;;3.35;2.12;;;;;;;1.97;97.63;98988.06;1763258;81;21150;-78
2023/03/29 02:15:12;;;;;;;2.47;2.25;;;;;;;2.12;97.11;98995.15;1761927;80;21197;-79
2023/03/29 02:18:20;;;;;;;1.92;1.72;;;;;;;2.03;97.35;98990.67;1761858;81;21920;-78
2023/03/29 02:21:33;;;;;;;2.67;2.30;;;;;;;1.91;96.93;98986.00;1761651;80;21749;-87
2023/03/29 02:24:39;;;;;;;3.30;2.10;;;;;;;1.71;98.08;98979.91;1762845;81;21209;-78
2023/03/29 02:27:45;;;;;;;1.82;1.70;;;;;;;1.75;98.23;98989.89;1763258;81;21150;-79
2023/03/29 02:31:07;;;;;;;3.42;2.30;;;;;;;1.81;98.13;98983.03;1763147;81;21153;-86
2023/03/29 02:34:29;;;;;;;3.45;2.37;;;;;;;1.84;97.62;98984.09;1763234;81;21181;-79
2023/03/29 02:37:35;;;;;;;3.15;2.10;;;;;;;1.77;97.85;98990.06;1763234;81;21758;-79
2023/03/29 02:40:41;;;;;;;2.47;2.27;;;;;;;1.62;97.52;98994.80;1763192;81;21625;-79
2023/03/29 02:43:43;;;;;;;2.43;2.23;;;;;;;1.65;96.89;99003.43;1763650;81;21154;-80
2023/03/29 02:46:49;;;;;;;3.98;2.70;;;;;;;1.57;96.65;99001.98;1763261;81;21229;-78
2023/03/29 02:49:56;;;;;;;4.90;2.45;;;;;;;1.56;96.74;99000.30;1763314;81;21201;-78
2023/03/29 02:53:05;;;;;;;3.50;2.60;;;;;;;1.46;97.27;99000.85;1763328;81;21162;-86
2023/03/29 02:56:11;;;;;;;6.47;2.90;;;;;;;1.45;97.30;99004.02;1761859;81;21165;-86
2023/03/29 02:59:18;;;;;;;8.60;3.20;;;;;;;1.47;97.04;99007.43;1763182;81;21205;-78
2023/03/29 03:02:26;;;;;;;6.25;3.25;;;;;;;1.35;96.97;99008.61;1763144;81;21229;-86
2023/03/29 03:05:33;;;;;;;7.10;3.70;;;;;;;1.28;97.08;99008.38;1763387;81;21181;-79
2023/03/29 03:08:37;;;;;;;7.40;3.08;;;;;;;1.23;97.45;99013.87;1763256;81;21154;-87
2023/03/29 03:11:43;;;;;;;7.67;3.50;;;;;;;1.27;97.77;99020.63;1763286;81;21141;-78
2023/03/29 03:14:36;;;;;;;5.00;2.77;;;;;;;1.27;97.78;99026.89;1762743;81;21241;-78
2023/03/29 03:17:42;;;;;;;6.47;3.30;;;;;;;1.23;97.98;99036.27;1763642;81;21189;-78
2023/03/29 03:20:49;;;;;;;6.25;3.00;;;;;;;1.27;98.01;99017.46;1767616;80;21233;-85
2023/03/29 03:23:55;;;;;;;5.22;3.05;;;;;;;1.34;97.86;99024.94;1768843;81;21220;-79
2023/03/29 03:27:03;;;;;;;8.73;3.85;;;;;;;1.37;97.54;99035.43;1768822;81;21158;-86
2023/03/29 03:30:12;;;;;;;8.08;5.12;;;;;;;1.33;97.68;99035.38;1768061;81;21774;-78
2023/03/29 03:33:22;;;;;;;7.12;3.98;;;;;;;1.36;97.34;99039.09;1766412;81;21149;-78
2023/03/29 03:36:50;;;;;;;7.40;3.65;;;;;;;1.35;96.73;99053.07;1660659;85;21208;-80
2023/03/29 03:39:55;;;;;;;6.40;3.37;;;;;;;1.32;96.50;99051.16;1769031;81;21751;-86
2023/03/29 03:43:01;;;;;;;6.62;4.05;;;;;;;1.26;96.68;99056.15;1768969;81;21161;-79
2023/03/29 03:46:08;;;;;;;5.42;3.50;;;;;;;1.27;96.53;99051.13;1768875;81;21200;-85
2023/03/29 03:49:13;;;;;;;9.65;4.05;;;;;;;1.21;96.80;99053.05;1768959;81;21786;-78
2023/03/29 03:52:19;;;;;;;8.65;4.05;;;;;;;1.13;97.12;99052.96;1768979;81;21166;-86
2023/03/29 03:55:25;;;;;;;7.65;3.80;;;;;;;1.11;97.35;99056.78;1767356;81;21213;-79
2023/03/29 03:58:35;;;;;;;5.45;4.00;;;;;;;1.19;97.38;99061.79;1767424;81;21185;-79
2023/03/29 04:01:42;;;;;;;6.97;4.17;;;;;;;1.21;97.13;99053.55;1767646;81;21177;-86
2023/03/29 04:04:49;;;;;;;6.62;4.28;;;;;;;1.12;97.45;99052.59;1768292;81;21244;-86
2023/03/29 04:07:56;;;;;;;7.42;3.60;;;;;;;1.23;97.82;99058.31;1768854;81;21162;-79
2023/03/29 04:11:21;;;;;;;5.30;3.98;;;;;;;1.30;97.41;99065.30;1767315;80;21213;-87
2023/03/29 04:14:30;;;;;;;10.05;4.28;;;;;;;1.28;96.74;99077.08;1768566;81;21286;-79
2023/03/29 04:17:32;;;;;;;9.70;4.65;;;;;;;1.36;96.62;99080.86;1768149;81;21181;-85
2023/03/29 04:20:51;;;;;;;8.55;4.28;;;;;;;1.37;96.72;99077.19;1767285;81;21461;-79
2023/03/29 04:23:57;;;;;;;7.55;4.28;;;;;;;1.56;96.07;99087.89;1768958;81;21142;-79
2023/03/29 04:27:03;;;;;;;8.15;4.00;;;;;;;1.47;96.17;99100.91;1740459;81;21149;-79
2023/03/29 04:30:11;;;;;;;4.25;3.52;;;;;;;1.28;96.48;99106.70;1767546;80;21768;-80
2023/03/29 04:33:32;;;;;;;6.37;4.00;;;;;;;1.50;96.32;99103.28;1768910;81;21173;-81
2023/03/29 04:36:38;;;;;;;6.25;3.92;;;;;;;1.53;95.96;99105.69;1767659;80;21237;-79
2023/03/29 04:39:45;;;;;;;3.95;3.52;;;;;;;1.54;95.98;99108.73;1768939;81;21189;-87
2023/03/29 04:42:53;;;;;;;4.42;3.95;;;;;;;1.62;95.77;99108.00;1768999;81;21706;-79
2023/03/29 04:45:59;;;;;;;5.05;3.80;;;;;;;1.63;95.28;99109.19;1740368;81;21196;-79
2023/03/29 04:49:07;;;;;;;6.33;4.20;;;;;;;1.66;95.63;99123.73;1768691;81;21249;-85
2023/03/29 04:52:14;;;;;;;6.22;4.00;;;;;;;1.72;95.71;99124.97;1768915;81;21205;-79
2023/03/29 04:55:21;;;;;;;10.30;4.70;;;;;;;1.92;94.77;99144.09;1767621;81;21244;-87
2023/03/29 04:58:21;;;;;;;4.75;4.05;;;;;;;1.84;94.13;99145.87;1768933;81;21161;-79
2023/03/29 05:01:16;;;;;;;5.03;3.90;;;;;;;1.69;94.57;99142.78;1768959;81;21154;-88
2023/03/29 05:04:03;;;;;;;4.78;3.80;;;;;;;1.75;94.68;99147.10;1768621;80;21185;-88
2023/03/29 05:07:00;;;;;;;4.25;3.65;;;;;;;1.68;95.45;99134.35;1768972;81;21161;-81
2023/03/29 05:10:07;;;;;;;5.35;4.10;;;;;;;1.67;95.73;99138.05;1768839;81;21221;-88
2023/03/29 05:13:13;;;;;;;6.55;3.90;;;;;;;1.58;96.19;99141.13;1767183;81;21699;-79
2023/03/29 05:16:19;;;;;;;6.33;3.67;;;;;;;1.59;96.37;99150.06;1767492;81;21181;-80
2023/03/29 05:19:26;;;;;;;3.72;3.12;;;;;;;1.59;96.20;99154.95;1767268;81;21201;-88
2023/03/29 05:22:31;;;;;;;8.13;3.75;;;;;;;1.63;96.46;99171.69;1765806;80;21775;-88
2023/03/29 05:25:42;;;;;;;7.25;3.55;;;;;;;1.63;96.00;99184.66;1766938;80;21766;-79
2023/03/29 05:28:48;;;;;;;6.53;4.22;;;;;;;1.54;96.31;99192.28;1748995;81;21165;-79
2023/03/29 05:31:53;;;;;;;5.40;3.25;;;;;;;1.59;96.60;99200.77;1761821;80;21710;-80
2023/03/29 05:34:58;;;;;;;5.70;3.55;;;;;;;1.62;96.39;99212.62;1750260;81;21185;-80
2023/03/29 05:38:04;;;;;;;5.58;3.65;;;;;;;1.64;96.61;99218.70;1750894;80;21673;-88
2023/03/29 05:41:11;;;;;;;4.03;3.50;;;;;;;1.79;96.24;99221.30;1752898;80;21734;-79
2023/03/29 05:44:34;;;;;;;5.80;3.45;;;;;;;1.69;95.92;99231.74;1754849;81;21212;-88
2023/03/29 05:47:41;;;;;;;6.70;3.00;;;;;;;1.66;96.24;99220.77;1760323;80;21406;-79
2023/03/29 05:50:47;;;;;;;3.85;3.02;;;;;;;1.67;96.12;99206.80;1762397;80;21785;-88
2023/03/29 05:53:52;;;;;;;6.95;3.75;;;;;;;1.74;95.66;99208.77;1753000;79;21496;-88
2023/03/29 05:56:59;;;;;;;6.03;3.90;;;;;;;1.70;95.21;99207.36;1753412;80;21181;-80
2023/03/29 06:00:30;;;;;;;4.22;3.42;;;;;;;1.74;95.32;99218.20;1744157;81;21216;-79
2023/03/29 06:03:06;;;;;;;3.12;2.83;;;;;;;1.87;95.53;99211.11;1756967;81;21221;-88
2023/03/29 06:06:15;;;;;;;3.72;3.40;;;;;;;1.85;94.91;99202.33;1769801;80;21101;-88
2023/03/29 06:09:22;;;;;;;5.05;3.20;;;;;;;1.92;94.08;99225.50;1765685;79;21157;-88
2023/03/29 06:12:28;;;;;;;4.28;3.10;;;;;;;1.86;93.85;99230.99;1748086;79;21130;-87
2023/03/29 06:15:35;;;;;;;4.40;3.20;;;;;;;1.95;94.34;99232.81;1759880;79;21161;-87
2023/03/29 06:18:43;;;;;;;3.62;3.30;;;;;;;2.07;93.77;99225.87;1766929;81;21224;-88
2023/03/29 06:21:52;;;;;;;3.55;2.83;;;;;;;2.07;94.76;99236.19;1762560;80;21678;-79
2023/03/29 06:24:58;;;;;;;3.83;2.87;;;;;;;2.12;93.85;99243.33;1751832;79;21228;-79
2023/03/29 06:28:04;;;;;;;3.72;2.80;;;;;;;2.25;92.74;99241.11;1747090;81;21450;-79
2023/03/29 06:31:11;;;;;;;4.72;3.35;;;;;;;2.18;92.91;99252.17;1760470;80;21165;-88
2023/03/29 06:34:16;;;;;;;4.15;3.22;;;;;;;2.12;93.05;99251.89;1750571;79;21161;-88
2023/03/29 06:37:32;;;;;;;4.55;3.67;;;;;;;2.00;92.97;99248.05;1686131;83;21840;-80
2023/03/29 06:40:43;;;;;;;4.58;3.00;;;;;;;2.04;93.54;99264.79;1752092;80;21165;-79
2023/03/29 06:43:49;;;;;;;4.75;3.47;;;;;;;2.11;93.99;99269.93;1748748;81;21130;-88
2023/03/29 06:46:56;;;;;;;5.65;2.90;;;;;;;2.12;93.90;99281.09;1742806;80;21213;-88
2023/03/29 06:49:56;;;;;;;6.80;3.83;;;;;;;2.03;93.52;99274.73;1747842;81;21165;-79
2023/03/29 06:52:52;;;;;;;8.88;3.83;;;;;;;2.05;93.07;99284.02;1749492;79;21133;-87
2023/03/29 06:55:58;;;;;;;6.08;3.58;;;;;;;2.10;93.79;99290.33;1740874;81;21145;-79
2023/03/29 06:59:05;;;;;;;5.17;3.30;;;;;;;2.20;93.51;99293.33;1746106;81;21153;-87
2023/03/29 07:02:21;;;;;;;4.15;3.27;;;;;;;2.18;93.68;99303.94;1741228;80;21162;-88
2023/03/29 07:05:30;;;;;;;5.85;3.17;;;;;;;2.16;92.88;99312.66;1732760;80;21181;-88
2023/03/29 07:08:42;;;;;;;4.92;3.47;;;;;;;2.15;92.45;99315.86;1734946;81;21158;-89
2023/03/29 07:11:46;;;;;;;3.72;3.22;;;;;;;2.17;92.72;99321.13;1722015;81;21197;-79
2023/03/29 07:14:52;;;;;;;3.40;2.83;;;;;;;2.19;92.94;99332.11;1722937;83;21250;-88
2023/03/29 07:18:18;;;;;;;4.28;3.35;;;;;;;2.26;92.38;99334.59;1755214;81;21233;-79
2023/03/29 07:21:23;;;;;;;5.15;3.37;;;;;;;2.23;93.29;99333.52;1758723;81;21201;-88
2023/03/29 07:24:29;;;;;;;3.50;2.60;;;;;;;2.29;94.18;99341.02;1754569;81;21894;-79
2023/03/29 07:27:34;;;;;;;3.33;2.80;;;;;;;2.34;92.32;99337.03;1741567;81;21190;-80
2023/03/29 07:30:41;;;;;;;4.37;2.77;;;;;;;2.37;91.69;99334.89;1754793;81;21225;-88
2023/03/29 07:33:51;;;;;;;5.17;3.72;;;;;;;2.45;90.93;99328.77;1754777;81;21217;-89
2023/03/29 07:36:54;;;;;;;3.45;3.12;;;;;;;2.54;90.92;99333.24;1754361;81;21162;-79
2023/03/29 07:40:03;;;;;;;6.42;3.52;;;;;;;2.51;91.74;99329.52;1754176;81;21190;-88
2023/03/29 07:43:22;;;;;;;3.25;2.95;;;;;;;2.48;91.71;99327.95;1735312;81;21134;-80
2023/03/29 07:46:29;;;;;;;4.87;3.08;;;;;;;2.65;91.82;99334.42;1725048;81;21725;-79
2023/03/29 07:49:34;;;;;;;5.00;3.17;;;;;;;2.68;91.52;99339.53;1755201;81;21218;-80
2023/03/29 07:52:40;;;;;;;5.20;3.00;;;;;;;2.66;90.94;99328.52;1746738;81;21158;-88
2023/03/29 07:55:48;;;;;;;4.92;2.80;;;;;;;2.61;90.81;99337.06;1727545;81;21216;-79
2023/03/29 07:59:01;;;;;;;4.75;3.35;;;;;;;2.66;89.61;99337.47;1711672;81;21174;-79
2023/03/29 08:02:01;;;;;;;5.10;3.08;;;;;;;2.55;90.38;99345.77;1746937;81;21129;-80
2023/03/29 08:05:16;;;;;;;4.72;3.42;;;;;;;2.52;91.05;99343.36;1757801;81;21636;-88
2023/03/29 08:08:22;;;;;;;2.70;2.45;;;;;;;2.74;90.55;99336.22;1742917;81;21809;-79
2023/03/29 08:11:28;;;;;;;4.22;2.70;;;;;;;2.90;88.99;99332.01;1745253;82;21169;-89
2023/03/29 08:14:37;;;;;;;6.30;3.05;;;;;;;2.89;87.86;99347.88;1737079;81;21219;-88
2023/03/29 08:17:46;;;;;;;3.60;3.10;;;;;;;2.96;87.17;99344.91;1731444;83;21181;-82
2023/03/29 08:20:53;;;;;;;5.10;3.30;;;;;;;3.02;86.18;99336.22;1730074;82;21217;-88
2023/03/29 08:24:00;;;;;;;4.35;3.08;;;;;;;2.99;85.08;99346.80;1732073;82;21359;-80
2023/03/29 08:27:10;;;;;;;3.27;2.98;;;;;;;2.94;84.58;99332.06;1739185;81;21792;-79
2023/03/29 08:30:18;;;;;;;3.22;2.75;;;;;;;3.03;83.11;99342.80;1766533;81;21240;-79
2023/03/29 08:33:25;;;;;;;3.47;2.95;;;;;;;2.99;81.68;99329.75;1766236;81;21173;-88
2023/03/29 08:36:36;;;;;;;3.05;2.60;;;;;;;2.98;82.79;99337.52;1722961;83;21184;-79
2023/03/29 08:39:44;;;;;;;3.90;3.08;;;;;;;2.98;81.09;99351.02;1729848;81;21232;-89
2023/03/29 08:43:30;;;;;;;4.67;3.12;;;;;;;3.03;81.93;99337.41;1742725;81;21146;-88
2023/03/29 08:46:44;;;;;;;6.67;3.20;;;;;;;3.05;83.21;99354.80;1736312;82;21774;-89
2023/03/29 08:50:00;;;;;;;3.62;3.22;;;;;;;3.10;83.68;99361.95;1754224;81;21193;-89
2023/03/29 08:53:10;;;;;;;8.93;3.40;;;;;;;3.01;83.21;99347.52;1737383;81;21193;-79
2023/03/29 08:56:32;;;;;;;4.67;3.02;;;;;;;3.04;83.34;99370.16;1737014;82;21185;-88
2023/03/29 08:59:39;;;;;;;;;;;;;;;3.18;83.41;99366.61;1762485;81;21189;-79
2023/03/29 09:02:46;;;;;;;3.33;2.77;;;;;;;3.05;82.20;99372.36;1766282;80;20199;-88
2023/03/29 09:05:55;;;;;;;3.25;2.85;;;;;;;3.23;81.70;99371.90;1760028;81;21193;-88
2023/03/29 09:09:01;;;;;;;5.78;3.65;;;;;;;3.26;81.17;99381.57;1743205;81;21145;-79
2023/03/29 09:12:46;;;;;;;4.92;3.77;;;;;;;3.35;81.32;99367.14;1747943;80;21556;-79
2023/03/29 09:16:08;;;;;;;3.92;3.40;;;;;;;3.43;81.95;99384.77;1724336;83;21720;-79
2023/03/29 09:19:47;;;;;;;5.90;3.05;;;;;;;3.43;82.33;99399.64;1743843;81;21184;-89
2023/03/29 09:23:22;;;;;;;8.60;3.05;;;;;;;3.41;81.64;99399.46;1745567;81;21132;-88
2023/03/29 09:26:54;;;;;;;3.45;3.05;;;;;;;3.31;80.00;99388.72;1707892;83;21166;-79
2023/03/29 09:30:15;;;;;;;3.72;2.52;;;;;;;3.53;78.71;99392.34;1719329;81;21772;-79
2023/03/29 09:33:41;;;;;;;3.17;2.87;;;;;;;3.51;76.85;99411.91;1757363;81;21150;-89
2023/03/29 09:37:10;;;;;;;3.67;3.35;;;;;;;3.41;77.38;99430.55;1754133;81;21157;-87
2023/03/29 09:40:24;;;;;;;3.70;3.30;;;;;;;3.38;77.53;99433.55;1755398;81;21129;-88
2023/03/29 09:43:42;;;;;;;4.22;3.05;;;;;;;3.26;77.70;99437.82;1755421;81;21496;-79
2023/03/29 09:46:52;;;;;;;3.45;2.90;;;;;;;3.15;76.67;99443.91;1758430;81;21153;-79
2023/03/29 09:50:06;;;;;;;3.15;2.80;;;;;;;3.15;77.98;99466.88;1751472;81;21173;-78
2023/03/29 09:53:15;;;;;;;6.05;2.98;;;;;;;3.10;76.87;99466.48;1748484;81;21217;-85
2023/03/29 09:56:27;;;;;;;3.17;2.87;;;;;;;3.17;76.87;99472.50;1713269;81;21727;-88
2023/03/29 09:59:33;;;;;;;3.62;3.30;;;;;;;3.39;77.27;99475.80;1752815;81;21189;-87
2023/03/29 10:02:40;;;;;;;6.47;3.27;;;;;;;3.42;76.43;99481.75;1759229;81;21178;-88
2023/03/29 10:05:47;;;;;;;3.30;3.00;;;;;;;3.45;76.69;99486.88;1751753;81;21192;-87
2023/03/29 10:08:58;;;;;;;7.58;2.98;;;;;;;3.48;77.15;99490.64;1721885;83;21188;-79
2023/03/29 10:12:06;;;;;;;3.20;2.90;;;;;;;3.53;76.92;99494.23;1750984;81;21154;-78
2023/03/29 10:15:16;;;;;;;3.27;2.92;;;;;;;3.46;76.08;99505.30;1758176;81;21161;-79
2023/03/29 10:18:23;;;;;;;3.10;2.80;;;;;;;3.42;76.57;99501.19;1734493;81;21138;-79
2023/03/29 10:21:28;;;;;;;5.00;3.52;;;;;;;3.35;76.33;99507.70;1683408;84;21166;-79
2023/03/29 10:24:35;;;;;;;3.75;3.40;;;;;;;3.43;76.14;99524.51;1759638;81;21186;-79
2023/03/29 10:27:40;;;;;;;4.37;3.10;;;;;;;3.35;76.66;99526.63;1756602;80;21122;-88
2023/03/29 10:30:47;;;;;;;3.75;2.80;;;;;;;3.29;76.80;99522.67;1753746;81;21157;-79
2023/03/29 10:34:01;;;;;;;3.40;2.40;;;;;;;3.14;76.68;99536.30;1760253;81;21177;-88
2023/03/29 10:37:07;;;;;;;3.72;3.15;;;;;;;3.23;76.57;99534.05;1700015;83;21160;-78
2023/03/29 10:40:13;;;;;;;4.65;3.12;;;;;;;3.19;78.55;99535.85;1717585;83;21773;-87
2023/03/29 10:43:31;;;;;;;4.80;3.12;;;;;;;3.10;78.06;99536.23;1702495;83;21209;-86
2023/03/29 10:46:39;;;;;;;5.12;2.95;;;;;;;3.12;77.82;99550.47;1707392;83;21193;-87
2023/03/29 10:49:46;;;;;;;;;;;;;;;3.12;77.95;99545.56;1741153;81;21205;-88
2023/03/29 10:52:54;;;;;;;3.37;3.02;;;;;;;2.93;77.26;99551.37;1733934;81;20203;-87
2023/03/29 10:56:38;;;;;;;7.37;2.80;;;;;;;3.01;75.79;99546.10;1740648;81;21734;-87
2023/03/29 11:00:05;;;;;;;3.83;3.10;;;;;;;2.96;75.39;99544.31;1731948;83;21229;-86
2023/03/29 11:03:22;;;;;;;2.95;2.65;;;;;;;2.75;76.23;99560.72;1732016;83;21213;-87
2023/03/29 11:07:00;;;;;;;3.60;2.98;;;;;;;2.75;76.05;99553.97;1752663;81;21166;-86
2023/03/29 11:10:33;;;;;;;6.47;3.27;;;;;;;2.69;77.89;99570.75;1714367;83;21224;-88
2023/03/29 11:13:58;;;;;;;3.70;3.30;;;;;;;2.62;79.31;99576.36;1657455;85;21185;-87
2023/03/29 11:17:17;;;;;;;3.17;2.60;;;;;;;2.60;80.08;99581.06;1715789;83;21172;-80
2023/03/29 11:20:54;;;;;;;4.08;3.37;;;;;;;2.73;80.38;99579.39;1715586;83;21209;-86
2023/03/29 11:24:19;;;;;;;6.60;3.35;;;;;;;2.91;79.16;99587.62;1715799;83;21217;-79
2023/03/29 11:28:12;;;;;;;5.17;3.98;;;;;;;3.11;78.68;99585.75;1711455;83;21266;-79
2023/03/29 11:31:51;;;;;;;5.35;3.67;;;;;;;2.64;79.58;99600.04;1706664;84;21159;-87
2023/03/29 11:35:11;;;;;;;5.40;3.95;;;;;;;2.63;78.74;99584.81;1704780;84;21198;-88
2023/03/29 11:38:50;;;;;;;5.20;3.92;;;;;;;2.56;78.03;99593.14;1690323;84;21238;-79
2023/03/29 11:41:59;;;;;;;5.50;4.12;;;;;;;2.50;78.95;99595.92;1705698;84;21191;-79
2023/03/29 11:45:05;;;;;;;6.80;3.65;;;;;;;2.54;79.77;99597.81;1683344;83;21177;-79
2023/03/29 11:48:13;;;;;;;4.50;4.10;;;;;;;2.49;79.77;99610.89;1705525;84;21194;-87
2023/03/29 11:51:32;;;;;;;4.78;4.28;;;;;;;2.38;80.29;99603.79;1700413;84;21169;-79
2023/03/29 11:54:58;;;;;;;6.37;4.58;;;;;;;2.45;80.34;99598.70;1698853;84;21213;-88
2023/03/29 11:58:41;;;;;;;9.38;4.33;;;;;;;2.47;79.92;99607.49;1699609;84;21687;-88
2023/03/29 12:02:01;;;;;;;5.87;5.00;;;;;;;2.37;78.05;99610.69;1702915;83;21206;-78
2023/03/29 12:05:09;;;;;;;6.90;5.08;;;;;;;2.40;78.30;99618.02;1695695;83;21509;-88
2023/03/29 12:08:30;;;;;;;5.70;4.67;;;;;;;2.44;78.10;99622.61;1700439;84;21158;-79
2023/03/29 12:11:39;;;;;;;5.90;5.33;;;;;;;2.32;78.90;99634.55;1693828;84;21165;-88
2023/03/29 12:14:59;;;;;;;9.95;5.40;;;;;;;2.31;79.12;99629.66;1698829;82;21201;-79
2023/03/29 12:18:45;;;;;;;6.45;5.40;;;;;;;2.19;78.94;99637.00;1695132;84;21201;-81
2023/03/29 12:21:53;;;;;;;9.60;5.28;;;;;;;2.18;78.32;99639.85;1744485;81;21200;-79
2023/03/29 12:25:00;;;;;;;8.45;5.60;;;;;;;2.08;77.08;99636.28;1742047;81;21186;-88
2023/03/29 12:28:32;;;;;;;9.20;5.85;;;;;;;2.04;77.62;99627.11;1720356;82;21244;-88
2023/03/29 12:32:01;;;;;;;7.78;5.17;;;;;;;2.07;78.14;99639.95;1753594;81;21837;-88
2023/03/29 12:35:33;;;;;;;7.35;6.45;;;;;;;2.06;78.13;99651.23;1750508;81;21180;-80
2023/03/29 12:38:57;;;;;;;10.08;6.33;;;;;;;2.03;77.76;99650.19;1718932;81;21197;-79
2023/03/29 12:42:25;;;;;;;7.80;6.55;;;;;;;2.15;78.51;99653.61;1705316;81;21198;-79
2023/03/29 12:45:51;;;;;;;7.55;6.12;;;;;;;2.05;79.08;99644.14;1712429;82;21226;-79
2023/03/29 12:49:06;;;;;;;8.63;6.33;;;;;;;2.07;77.52;99659.72;1726950;81;21197;-79
2023/03/29 12:52:03;;;;;;;12.13;6.58;;;;;;;2.07;78.05;99654.78;1736630;81;21504;-81
2023/03/29 12:55:12;;;;;;;8.83;6.75;;;;;;;1.93;79.08;99643.88;1725715;83;21595;-80
2023/03/29 12:58:48;;;;;;;10.10;7.10;;;;;;;1.90;78.75;99644.18;1726468;83;21217;-88
2023/03/29 13:02:23;;;;;;;10.03;7.20;;;;;;;1.86;79.93;99656.23;1714300;83;21161;-86
2023/03/29 13:05:38;;;;;;;8.85;7.10;;;;;;;1.92;79.60;99646.23;1725815;83;21205;-87
2023/03/29 13:08:52;;;;;;;9.78;6.75;;;;;;;1.99;78.52;99646.91;1725691;83;21158;-88
2023/03/29 13:12:23;;;;;;;10.35;6.55;;;;;;;2.09;78.54;99644.73;1743462;81;21238;-88
2023/03/29 13:15:32;;;;;;;8.33;6.80;;;;;;;2.11;77.01;99656.22;1754104;81;21213;-80
2023/03/29 13:19:05;;;;;;;8.73;6.85;;;;;;;2.13;76.38;99663.70;1754973;81;21205;-87
2023/03/29 13:22:26;;;;;;;7.72;6.92;;;;;;;2.17;77.09;99647.59;1755477;81;21747;-87
2023/03/29 13:26:10;;;;;;;9.95;7.90;;;;;;;2.19;76.17;99657.23;1755086;81;21701;-80
2023/03/29 13:29:26;;;;;;;14.00;8.15;;;;;;;2.09;75.85;99679.30;1755628;81;21198;-79
2023/03/29 13:32:59;;;;;;;11.40;7.30;;;;;;;2.21;75.26;99645.83;1755621;81;21516;-87
2023/03/29 13:36:18;;;;;;;9.48;7.10;;;;;;;2.21;75.42;99670.58;1756621;81;21197;-87
2023/03/29 13:39:28;;;;;;;8.93;6.72;;;;;;;2.05;75.45;99680.06;1756632;81;21205;-87
2023/03/29 13:42:46;;;;;;;9.15;7.67;;;;;;;2.02;76.13;99678.12;1756487;81;21165;-79
2023/03/29 13:46:04;;;;;;;11.03;7.45;;;;;;;2.03;76.14;99690.65;1757936;81;21201;-88
2023/03/29 13:49:19;;;;;;;13.43;8.33;;;;;;;2.11;76.82;99706.13;1757836;81;21201;-87
2023/03/29 13:52:38;;;;;;;11.18;7.28;;;;;;;2.17;76.44;99706.95;1757900;81;21198;-88
2023/03/29 13:55:49;;;;;;;9.05;7.50;;;;;;;2.07;76.05;99695.25;1756398;81;22166;-80
2023/03/29 13:59:08;;;;;;;8.88;7.15;;;;;;;2.17;75.81;99702.41;1757805;81;21182;-80
2023/03/29 14:02:23;;;;;;;10.40;7.80;;;;;;;2.21;75.41;99697.10;1758044;81;21723;-86
2023/03/29 14:05:34;;;;;;;11.18;7.60;;;;;;;2.16;74.87;99704.72;1757843;81;21201;-88
2023/03/29 14:08:48;;;;;;;7.10;6.00;;;;;;;2.31;73.88;99710.62;1757869;81;21263;-86
2023/03/29 14:11:55;;;;;;;8.68;6.95;;;;;;;2.14;74.77;99714.81;1756738;81;21217;-79
2023/03/29 14:15:02;;;;;;;9.83;6.92;;;;;;;2.16;75.63;99722.27;1757277;81;21204;-79
2023/03/29 14:18:09;;;;;;;8.43;5.92;;;;;;;2.14;74.72;99731.50;1743704;81;21154;-88
2023/03/29 14:21:21;;;;;;;9.43;7.15;;;;;;;2.16;75.01;99741.15;1757893;81;21716;-79
2023/03/29 14:24:31;;;;;;;10.28;7.10;;;;;;;2.24;74.67;99746.73;1756408;81;21200;-88
2023/03/29 14:27:38;;;;;;;9.58;7.17;;;;;;;2.23;74.71;99739.63;1757904;81;21229;-88
2023/03/29 14:30:45;;;;;;;8.58;6.47;;;;;;;2.17;74.34;99744.23;1756751;81;21182;-79
2023/03/29 14:33:52;;;;;;;8.13;6.50;;;;;;;2.19;74.53;99753.03;1757830;81;21154;-79
2023/03/29 14:36:57;;;;;;;10.18;7.40;;;;;;;2.05;75.75;99747.51;1757836;81;21174;-88
2023/03/29 14:39:55;;;;;;;11.75;7.78;;;;;;;1.88;76.58;99742.73;1757717;81;21197;-80
2023/03/29 14:42:56;;;;;;;10.00;7.40;;;;;;;1.87;76.83;99748.27;1757723;81;21225;-88
2023/03/29 14:46:02;;;;;;;11.90;7.72;;;;;;;1.88;75.80;99764.31;1757728;81;21173;-88
2023/03/29 14:49:07;;;;;;;9.15;7.90;;;;;;;1.70;76.15;99766.80;1757799;81;21154;-79
2023/03/29 14:52:12;;;;;;;11.85;7.30;;;;;;;1.92;76.05;99768.45;1756598;81;21216;-80
2023/03/29 14:55:22;;;;;;;9.73;6.97;;;;;;;1.88;76.88;99763.46;1756987;81;21198;-88
2023/03/29 14:58:34;;;;;;;10.03;7.42;;;;;;;1.95;75.29;99761.95;1691461;84;21205;-82
2023/03/29 15:01:39;;;;;;;8.60;7.22;;;;;;;2.06;74.86;99775.34;1690206;84;21206;-79
2023/03/29 15:04:40;;;;;;;9.20;7.17;;;;;;;2.08;75.08;99777.42;1706079;84;21193;-87
2023/03/29 15:07:35;;;;;;;8.70;7.05;;;;;;;2.11;75.22;99782.52;1706160;84;21834;-88
2023/03/29 15:10:42;;;;;;;7.92;7.08;;;;;;;1.90;75.40;99793.87;1704953;84;21225;-88
2023/03/29 15:13:50;;;;;;;10.38;6.45;;;;;;;1.95;75.22;99794.31;1706105;84;21214;-79